sensor_id;sensor_type;location;lat;lon;timestamp;temperature;humidity
10419;DHT22;5256;48.728;9.140;2022-08-19T00:01:51;19.90;99.90
10419;DHT22;5256;48.728;9.140;2022-08-19T00:04:19;19.90;99.90
10419;DHT22;5256;48.728;9.140;2022-08-19T00:06:46;19.80;99.90
10419;DHT22;5256;48.728;9.140;2022-08-19T00:09:13;19.80;99.90
10419;DHT22;5256;48.728;9.140;2022-08-19T00:11:40;19.80;99.90
10419;DHT22;5256;48.728;9.140;2022-08-19T00:14:07;19.90;99.90
10419;DHT22;5256;48.728;9.140;2022-08-19T00:16:36;19.90;99.90
10419;DHT22;5256;48.728;9.140;2022-08-19T00:19:03;19.90;99.90
10419;DHT22;5256;48.728;9.140;2022-08-19T00:21:28;19.90;99.90
10419;DHT22;5256;48.728;9.140;2022-08-19T00:23:55;19.90;99.90
10419;DHT22;5256;48.728;9.140;2022-08-19T00:26:24;19.80;99.90
10419;DHT22;5256;48.728;9.140;2022-08-19T00:28:49;19.90;99.90
10419;DHT22;5256;48.728;9.140;2022-08-19T00:31:16;19.90;99.90
10419;DHT22;5256;48.728;9.140;2022-08-19T00:33:41;19.90;99.90
10419;DHT22;5256;48.728;9.140;2022-08-19T00:36:09;19.80;99.90
10419;DHT22;5256;48.728;9.140;2022-08-19T00:38:36;19.80;99.90
10419;DHT22;5256;48.728;9.140;2022-08-19T00:41:03;19.90;99.90
10419;DHT22;5256;48.728;9.140;2022-08-19T00:43:28;19.80;99.90
10419;DHT22;5256;48.728;9.140;2022-08-19T00:45:54;19.70;99.90
10419;DHT22;5256;48.728;9.140;2022-08-19T00:48:20;19.80;99.90
10419;DHT22;5256;48.728;9.140;2022-08-19T00:50:48;19.80;99.90
10419;DHT22;5256;48.728;9.140;2022-08-19T00:53:18;19.70;99.90
10419;DHT22;5256;48.728;9.140;2022-08-19T00:55:49;19.70;99.90
10419;DHT22;5256;48.728;9.140;2022-08-19T00:58:21;19.60;99.90
10419;DHT22;5256;48.728;9.140;2022-08-19T01:00:47;19.60;99.90
10419;DHT22;5256;48.728;9.140;2022-08-19T01:03:15;19.50;99.90
10419;DHT22;5256;48.728;9.140;2022-08-19T01:05:43;19.50;99.90
10419;DHT22;5256;48.728;9.140;2022-08-19T01:08:09;19.50;99.90
10419;DHT22;5256;48.728;9.140;2022-08-19T01:10:45;19.50;99.90
10419;DHT22;5256;48.728;9.140;2022-08-19T01:13:13;19.40;99.90
10419;DHT22;5256;48.728;9.140;2022-08-19T01:15:46;19.40;99.90
10419;DHT22;5256;48.728;9.140;2022-08-19T01:18:14;19.40;99.90
10419;DHT22;5256;48.728;9.140;2022-08-19T01:20:41;19.30;99.90
10419;DHT22;5256;48.728;9.140;2022-08-19T01:23:08;19.30;99.90
10419;DHT22;5256;48.728;9.140;2022-08-19T01:25:48;19.20;99.90
10419;DHT22;5256;48.728;9.140;2022-08-19T01:28:21;19.30;99.90
10419;DHT22;5256;48.728;9.140;2022-08-19T01:30:47;19.20;99.90
10419;DHT22;5256;48.728;9.140;2022-08-19T01:33:14;19.30;99.90
10419;DHT22;5256;48.728;9.140;2022-08-19T01:35:41;19.30;99.90
10419;DHT22;5256;48.728;9.140;2022-08-19T01:38:09;19.30;99.90
10419;DHT22;5256;48.728;9.140;2022-08-19T01:40:38;19.40;99.90
10419;DHT22;5256;48.728;9.140;2022-08-19T01:43:04;19.40;99.90
10419;DHT22;5256;48.728;9.140;2022-08-19T01:45:32;19.40;99.90
10419;DHT22;5256;48.728;9.140;2022-08-19T01:47:59;19.30;99.90
10419;DHT22;5256;48.728;9.140;2022-08-19T01:50:25;19.30;99.90
10419;DHT22;5256;48.728;9.140;2022-08-19T01:52:51;19.20;99.90
10419;DHT22;5256;48.728;9.140;2022-08-19T01:55:20;19.30;99.90
10419;DHT22;5256;48.728;9.140;2022-08-19T01:57:50;19.30;99.90
10419;DHT22;5256;48.728;9.140;2022-08-19T02:00:19;19.30;99.90
10419;DHT22;5256;48.728;9.140;2022-08-19T02:02:45;19.30;99.90
10419;DHT22;5256;48.728;9.140;2022-08-19T02:05:12;19.20;99.90
10419;DHT22;5256;48.728;9.140;2022-08-19T02:07:39;19.30;99.90
10419;DHT22;5256;48.728;9.140;2022-08-19T02:10:08;19.20;99.90
10419;DHT22;5256;48.728;9.140;2022-08-19T02:12:34;19.20;99.90
10419;DHT22;5256;48.728;9.140;2022-08-19T02:15:00;19.30;99.90
10419;DHT22;5256;48.728;9.140;2022-08-19T02:17:28;19.30;99.90
10419;DHT22;5256;48.728;9.140;2022-08-19T02:19:54;19.20;99.90
10419;DHT22;5256;48.728;9.140;2022-08-19T02:22:20;19.20;99.90
10419;DHT22;5256;48.728;9.140;2022-08-19T02:24:46;19.20;99.90
10419;DHT22;5256;48.728;9.140;2022-08-19T02:27:14;19.20;99.90
10419;DHT22;5256;48.728;9.140;2022-08-19T02:29:39;19.20;99.90
10419;DHT22;5256;48.728;9.140;2022-08-19T02:32:06;19.10;99.90
10419;DHT22;5256;48.728;9.140;2022-08-19T02:34:32;19.10;99.90
10419;DHT22;5256;48.728;9.140;2022-08-19T02:36:57;19.00;99.90
10419;DHT22;5256;48.728;9.140;2022-08-19T02:39:23;19.00;99.90
10419;DHT22;5256;48.728;9.140;2022-08-19T02:41:49;19.00;99.90
10419;DHT22;5256;48.728;9.140;2022-08-19T02:44:15;19.00;99.90
10419;DHT22;5256;48.728;9.140;2022-08-19T02:46:41;19.10;99.90
10419;DHT22;5256;48.728;9.140;2022-08-19T02:49:08;19.00;99.90
10419;DHT22;5256;48.728;9.140;2022-08-19T02:51:39;19.10;99.90
10419;DHT22;5256;48.728;9.140;2022-08-19T02:54:06;19.10;99.90
10419;DHT22;5256;48.728;9.140;2022-08-19T02:56:35;19.00;99.90
10419;DHT22;5256;48.728;9.140;2022-08-19T02:59:01;18.90;99.90
10419;DHT22;5256;48.728;9.140;2022-08-19T03:01:31;18.90;99.90
10419;DHT22;5256;48.728;9.140;2022-08-19T03:03:58;18.90;99.90
10419;DHT22;5256;48.728;9.140;2022-08-19T03:06:25;18.80;99.90
10419;DHT22;5256;48.728;9.140;2022-08-19T03:08:51;18.80;99.90
10419;DHT22;5256;48.728;9.140;2022-08-19T03:11:26;18.90;99.90
10419;DHT22;5256;48.728;9.140;2022-08-19T03:13:53;18.90;99.90
10419;DHT22;5256;48.728;9.140;2022-08-19T03:16:21;18.80;99.90
10419;DHT22;5256;48.728;9.140;2022-08-19T03:18:48;18.90;99.90
10419;DHT22;5256;48.728;9.140;2022-08-19T03:21:20;18.80;99.90
10419;DHT22;5256;48.728;9.140;2022-08-19T03:23:46;18.80;99.90
10419;DHT22;5256;48.728;9.140;2022-08-19T03:26:11;18.80;99.90
10419;DHT22;5256;48.728;9.140;2022-08-19T03:28:37;18.80;99.90
10419;DHT22;5256;48.728;9.140;2022-08-19T03:31:12;18.80;99.90
10419;DHT22;5256;48.728;9.140;2022-08-19T03:33:38;18.80;99.90
10419;DHT22;5256;48.728;9.140;2022-08-19T03:36:14;18.70;99.90
10419;DHT22;5256;48.728;9.140;2022-08-19T03:38:43;18.70;99.90
10419;DHT22;5256;48.728;9.140;2022-08-19T03:41:13;18.60;99.90
10419;DHT22;5256;48.728;9.140;2022-08-19T03:43:39;18.70;99.90
10419;DHT22;5256;48.728;9.140;2022-08-19T03:46:08;18.60;99.90
10419;DHT22;5256;48.728;9.140;2022-08-19T03:48:35;18.60;99.90
10419;DHT22;5256;48.728;9.140;2022-08-19T03:51:03;18.60;99.90
10419;DHT22;5256;48.728;9.140;2022-08-19T03:53:30;18.50;99.90
10419;DHT22;5256;48.728;9.140;2022-08-19T03:55:56;18.50;99.90
10419;DHT22;5256;48.728;9.140;2022-08-19T03:58:24;18.50;99.90
10419;DHT22;5256;48.728;9.140;2022-08-19T04:00:50;18.60;99.90
10419;DHT22;5256;48.728;9.140;2022-08-19T04:03:16;18.50;99.90
10419;DHT22;5256;48.728;9.140;2022-08-19T04:05:44;18.60;99.90
10419;DHT22;5256;48.728;9.140;2022-08-19T04:08:10;18.50;99.90
10419;DHT22;5256;48.728;9.140;2022-08-19T04:10:36;18.50;99.90
10419;DHT22;5256;48.728;9.140;2022-08-19T04:13:04;18.50;99.90
10419;DHT22;5256;48.728;9.140;2022-08-19T04:15:31;18.50;99.90
10419;DHT22;5256;48.728;9.140;2022-08-19T04:18:01;18.50;99.90
10419;DHT22;5256;48.728;9.140;2022-08-19T04:20:26;18.60;99.90
10419;DHT22;5256;48.728;9.140;2022-08-19T04:22:52;18.60;99.90
10419;DHT22;5256;48.728;9.140;2022-08-19T04:25:18;18.60;99.90
10419;DHT22;5256;48.728;9.140;2022-08-19T04:27:43;18.50;99.90
10419;DHT22;5256;48.728;9.140;2022-08-19T04:30:12;18.50;99.90
10419;DHT22;5256;48.728;9.140;2022-08-19T04:32:38;18.50;99.90
10419;DHT22;5256;48.728;9.140;2022-08-19T04:35:04;18.40;99.90
10419;DHT22;5256;48.728;9.140;2022-08-19T04:37:31;18.50;99.90
10419;DHT22;5256;48.728;9.140;2022-08-19T04:39:58;18.50;99.90
10419;DHT22;5256;48.728;9.140;2022-08-19T04:42:43;18.50;99.90
10419;DHT22;5256;48.728;9.140;2022-08-19T04:45:12;18.40;99.90
10419;DHT22;5256;48.728;9.140;2022-08-19T04:47:40;18.50;99.90
10419;DHT22;5256;48.728;9.140;2022-08-19T04:50:06;18.50;99.90
10419;DHT22;5256;48.728;9.140;2022-08-19T04:52:33;18.50;99.90
10419;DHT22;5256;48.728;9.140;2022-08-19T04:54:59;18.50;99.90
10419;DHT22;5256;48.728;9.140;2022-08-19T04:57:25;18.60;99.90
10419;DHT22;5256;48.728;9.140;2022-08-19T04:59:55;18.60;99.90
10419;DHT22;5256;48.728;9.140;2022-08-19T05:02:21;18.50;99.90
10419;DHT22;5256;48.728;9.140;2022-08-19T05:04:56;18.60;99.90
10419;DHT22;5256;48.728;9.140;2022-08-19T05:07:22;18.60;99.90
10419;DHT22;5256;48.728;9.140;2022-08-19T05:09:47;18.60;99.90
10419;DHT22;5256;48.728;9.140;2022-08-19T05:12:13;18.60;99.90
10419;DHT22;5256;48.728;9.140;2022-08-19T05:14:39;18.70;99.90
10419;DHT22;5256;48.728;9.140;2022-08-19T05:17:04;18.70;99.90
10419;DHT22;5256;48.728;9.140;2022-08-19T05:19:30;18.80;99.90
10419;DHT22;5256;48.728;9.140;2022-08-19T05:22:14;18.80;99.90
10419;DHT22;5256;48.728;9.140;2022-08-19T05:24:58;18.80;99.90
10419;DHT22;5256;48.728;9.140;2022-08-19T05:27:25;18.80;99.90
10419;DHT22;5256;48.728;9.140;2022-08-19T05:29:51;18.90;99.90
10419;DHT22;5256;48.728;9.140;2022-08-19T05:32:16;18.90;99.90
10419;DHT22;5256;48.728;9.140;2022-08-19T05:34:42;18.90;99.90
10419;DHT22;5256;48.728;9.140;2022-08-19T05:37:08;18.90;99.90
10419;DHT22;5256;48.728;9.140;2022-08-19T05:39:36;18.90;99.90
10419;DHT22;5256;48.728;9.140;2022-08-19T05:42:05;18.90;99.90
10419;DHT22;5256;48.728;9.140;2022-08-19T05:44:34;19.00;99.90
10419;DHT22;5256;48.728;9.140;2022-08-19T05:47:03;19.00;99.90
10419;DHT22;5256;48.728;9.140;2022-08-19T05:49:31;19.00;99.90
10419;DHT22;5256;48.728;9.140;2022-08-19T05:51:57;19.00;99.90
10419;DHT22;5256;48.728;9.140;2022-08-19T05:54:24;19.10;99.90
10419;DHT22;5256;48.728;9.140;2022-08-19T05:56:51;19.00;99.90
10419;DHT22;5256;48.728;9.140;2022-08-19T05:59:18;19.00;99.90
10419;DHT22;5256;48.728;9.140;2022-08-19T06:01:47;19.00;99.90
10419;DHT22;5256;48.728;9.140;2022-08-19T06:04:16;19.00;99.90
10419;DHT22;5256;48.728;9.140;2022-08-19T06:06:43;19.00;99.90
10419;DHT22;5256;48.728;9.140;2022-08-19T06:09:08;19.00;99.90
10419;DHT22;5256;48.728;9.140;2022-08-19T06:11:41;19.00;99.90
10419;DHT22;5256;48.728;9.140;2022-08-19T06:14:17;19.00;99.90
10419;DHT22;5256;48.728;9.140;2022-08-19T06:16:44;19.00;99.90
10419;DHT22;5256;48.728;9.140;2022-08-19T06:19:15;19.00;99.90
10419;DHT22;5256;48.728;9.140;2022-08-19T06:21:43;19.00;99.90
10419;DHT22;5256;48.728;9.140;2022-08-19T06:24:11;19.10;99.90
10419;DHT22;5256;48.728;9.140;2022-08-19T06:26:39;19.10;99.90
10419;DHT22;5256;48.728;9.140;2022-08-19T06:29:06;19.10;99.90
10419;DHT22;5256;48.728;9.140;2022-08-19T06:31:33;19.10;99.90
10419;DHT22;5256;48.728;9.140;2022-08-19T06:34:04;19.00;99.90
10419;DHT22;5256;48.728;9.140;2022-08-19T06:36:41;19.00;99.90
10419;DHT22;5256;48.728;9.140;2022-08-19T06:39:14;19.00;99.90
10419;DHT22;5256;48.728;9.140;2022-08-19T06:41:43;19.00;99.90
10419;DHT22;5256;48.728;9.140;2022-08-19T06:44:09;19.00;99.90
10419;DHT22;5256;48.728;9.140;2022-08-19T06:46:35;19.10;99.90
10419;DHT22;5256;48.728;9.140;2022-08-19T06:49:02;19.00;99.90
10419;DHT22;5256;48.728;9.140;2022-08-19T06:51:28;19.00;99.90
10419;DHT22;5256;48.728;9.140;2022-08-19T06:53:55;19.00;99.90
10419;DHT22;5256;48.728;9.140;2022-08-19T06:56:28;19.00;99.90
10419;DHT22;5256;48.728;9.140;2022-08-19T06:59:00;18.90;99.90
10419;DHT22;5256;48.728;9.140;2022-08-19T07:01:26;18.80;99.90
10419;DHT22;5256;48.728;9.140;2022-08-19T07:03:51;18.60;99.90
10419;DHT22;5256;48.728;9.140;2022-08-19T07:06:18;18.60;99.90
10419;DHT22;5256;48.728;9.140;2022-08-19T07:08:46;18.40;99.90
10419;DHT22;5256;48.728;9.140;2022-08-19T07:11:15;18.30;99.90
10419;DHT22;5256;48.728;9.140;2022-08-19T07:13:43;18.30;99.90
10419;DHT22;5256;48.728;9.140;2022-08-19T07:16:13;18.30;99.90
10419;DHT22;5256;48.728;9.140;2022-08-19T07:18:40;18.30;99.90
10419;DHT22;5256;48.728;9.140;2022-08-19T07:21:08;18.20;99.90
10419;DHT22;5256;48.728;9.140;2022-08-19T07:23:34;18.20;99.90
10419;DHT22;5256;48.728;9.140;2022-08-19T07:26:13;18.10;99.90
10419;DHT22;5256;48.728;9.140;2022-08-19T07:28:40;18.10;99.90
10419;DHT22;5256;48.728;9.140;2022-08-19T07:31:07;18.10;99.90
10419;DHT22;5256;48.728;9.140;2022-08-19T07:33:33;18.00;99.90
10419;DHT22;5256;48.728;9.140;2022-08-19T07:36:06;18.00;99.90
10419;DHT22;5256;48.728;9.140;2022-08-19T07:38:33;18.00;99.90
10419;DHT22;5256;48.728;9.140;2022-08-19T07:40:59;18.10;99.90
10419;DHT22;5256;48.728;9.140;2022-08-19T07:43:25;18.10;99.90
10419;DHT22;5256;48.728;9.140;2022-08-19T07:45:53;18.10;99.90
10419;DHT22;5256;48.728;9.140;2022-08-19T07:48:23;18.20;99.90
10419;DHT22;5256;48.728;9.140;2022-08-19T07:50:52;18.20;99.90
10419;DHT22;5256;48.728;9.140;2022-08-19T07:53:18;18.30;99.90
10419;DHT22;5256;48.728;9.140;2022-08-19T07:55:44;18.30;99.90
10419;DHT22;5256;48.728;9.140;2022-08-19T07:58:12;18.30;99.90
10419;DHT22;5256;48.728;9.140;2022-08-19T08:00:38;18.40;99.90
10419;DHT22;5256;48.728;9.140;2022-08-19T08:03:04;18.50;99.90
10419;DHT22;5256;48.728;9.140;2022-08-19T08:05:30;18.50;99.90
10419;DHT22;5256;48.728;9.140;2022-08-19T08:08:14;18.60;99.90
10419;DHT22;5256;48.728;9.140;2022-08-19T08:10:59;18.70;99.90
10419;DHT22;5256;48.728;9.140;2022-08-19T08:13:25;18.80;99.90
10419;DHT22;5256;48.728;9.140;2022-08-19T08:15:50;18.70;99.90
10419;DHT22;5256;48.728;9.140;2022-08-19T08:18:16;18.70;99.90
10419;DHT22;5256;48.728;9.140;2022-08-19T08:20:42;18.60;99.90
10419;DHT22;5256;48.728;9.140;2022-08-19T08:23:08;18.60;99.90
10419;DHT22;5256;48.728;9.140;2022-08-19T08:25:51;18.50;99.90
10419;DHT22;5256;48.728;9.140;2022-08-19T08:28:18;18.40;99.90
10419;DHT22;5256;48.728;9.140;2022-08-19T08:30:45;18.40;99.90
10419;DHT22;5256;48.728;9.140;2022-08-19T08:33:13;18.30;99.90
10419;DHT22;5256;48.728;9.140;2022-08-19T08:35:40;18.30;99.90
10419;DHT22;5256;48.728;9.140;2022-08-19T08:38:10;18.30;99.90
10419;DHT22;5256;48.728;9.140;2022-08-19T08:40:49;18.20;99.90
10419;DHT22;5256;48.728;9.140;2022-08-19T08:43:35;18.20;99.90
10419;DHT22;5256;48.728;9.140;2022-08-19T08:46:09;18.20;99.90
10419;DHT22;5256;48.728;9.140;2022-08-19T08:48:49;18.10;99.90
10419;DHT22;5256;48.728;9.140;2022-08-19T08:51:22;18.10;99.90
10419;DHT22;5256;48.728;9.140;2022-08-19T08:53:50;18.00;99.90
10419;DHT22;5256;48.728;9.140;2022-08-19T08:56:17;18.00;99.90
10419;DHT22;5256;48.728;9.140;2022-08-19T08:58:54;18.00;99.90
10419;DHT22;5256;48.728;9.140;2022-08-19T09:01:22;18.10;99.90
10419;DHT22;5256;48.728;9.140;2022-08-19T09:03:48;18.20;99.90
10419;DHT22;5256;48.728;9.140;2022-08-19T09:06:35;18.30;99.90
10419;DHT22;5256;48.728;9.140;2022-08-19T09:12:05;18.30;99.90
10419;DHT22;5256;48.728;9.140;2022-08-19T09:16:58;18.30;99.90
10419;DHT22;5256;48.728;9.140;2022-08-19T09:19:24;18.40;99.90
10419;DHT22;5256;48.728;9.140;2022-08-19T09:21:50;18.40;99.90
10419;DHT22;5256;48.728;9.140;2022-08-19T09:24:16;18.50;99.90
10419;DHT22;5256;48.728;9.140;2022-08-19T09:26:41;18.60;99.90
10419;DHT22;5256;48.728;9.140;2022-08-19T09:29:09;18.70;99.90
10419;DHT22;5256;48.728;9.140;2022-08-19T09:31:35;19.00;99.90
10419;DHT22;5256;48.728;9.140;2022-08-19T09:34:01;19.10;99.90
10419;DHT22;5256;48.728;9.140;2022-08-19T09:36:30;19.20;99.90
10419;DHT22;5256;48.728;9.140;2022-08-19T09:38:58;19.30;99.90
10419;DHT22;5256;48.728;9.140;2022-08-19T09:41:25;19.40;99.90
10419;DHT22;5256;48.728;9.140;2022-08-19T09:43:53;19.50;99.90
10419;DHT22;5256;48.728;9.140;2022-08-19T09:46:21;19.40;99.90
10419;DHT22;5256;48.728;9.140;2022-08-19T09:48:48;19.40;99.90
10419;DHT22;5256;48.728;9.140;2022-08-19T09:51:23;19.50;99.90
10419;DHT22;5256;48.728;9.140;2022-08-19T09:53:50;19.50;99.90
10419;DHT22;5256;48.728;9.140;2022-08-19T09:56:21;19.50;99.90
10419;DHT22;5256;48.728;9.140;2022-08-19T09:58:47;19.60;99.90
10419;DHT22;5256;48.728;9.140;2022-08-19T10:01:22;19.60;99.90
10419;DHT22;5256;48.728;9.140;2022-08-19T10:03:52;19.70;99.90
10419;DHT22;5256;48.728;9.140;2022-08-19T10:06:23;19.70;99.90
10419;DHT22;5256;48.728;9.140;2022-08-19T10:08:50;19.70;99.90
10419;DHT22;5256;48.728;9.140;2022-08-19T10:11:17;19.80;99.90
10419;DHT22;5256;48.728;9.140;2022-08-19T10:13:44;19.90;99.90
10419;DHT22;5256;48.728;9.140;2022-08-19T10:16:16;19.90;99.90
10419;DHT22;5256;48.728;9.140;2022-08-19T10:18:43;20.00;99.90
10419;DHT22;5256;48.728;9.140;2022-08-19T10:21:18;20.00;99.90
10419;DHT22;5256;48.728;9.140;2022-08-19T10:23:47;19.90;99.90
10419;DHT22;5256;48.728;9.140;2022-08-19T10:26:16;19.90;99.90
10419;DHT22;5256;48.728;9.140;2022-08-19T10:28:42;19.90;99.90
10419;DHT22;5256;48.728;9.140;2022-08-19T10:31:10;20.00;99.90
10419;DHT22;5256;48.728;9.140;2022-08-19T10:33:37;20.10;99.90
10419;DHT22;5256;48.728;9.140;2022-08-19T10:36:09;20.10;99.90
10419;DHT22;5256;48.728;9.140;2022-08-19T10:38:36;20.30;99.90
10419;DHT22;5256;48.728;9.140;2022-08-19T10:41:12;20.30;99.90
10419;DHT22;5256;48.728;9.140;2022-08-19T10:43:39;20.50;99.90
10419;DHT22;5256;48.728;9.140;2022-08-19T10:46:06;20.60;99.90
10419;DHT22;5256;48.728;9.140;2022-08-19T10:48:32;20.50;99.90
10419;DHT22;5256;48.728;9.140;2022-08-19T10:50:58;20.30;99.90
10419;DHT22;5256;48.728;9.140;2022-08-19T10:53:42;20.20;99.90
10419;DHT22;5256;48.728;9.140;2022-08-19T10:56:08;20.10;99.90
10419;DHT22;5256;48.728;9.140;2022-08-19T10:58:52;20.10;99.90
10419;DHT22;5256;48.728;9.140;2022-08-19T11:01:18;20.10;99.90
10419;DHT22;5256;48.728;9.140;2022-08-19T11:03:44;20.10;99.90
10419;DHT22;5256;48.728;9.140;2022-08-19T11:06:10;20.00;99.90
10419;DHT22;5256;48.728;9.140;2022-08-19T11:08:37;20.00;99.90
10419;DHT22;5256;48.728;9.140;2022-08-19T11:11:04;20.20;99.90
10419;DHT22;5256;48.728;9.140;2022-08-19T11:13:32;20.30;99.90
10419;DHT22;5256;48.728;9.140;2022-08-19T11:16:02;20.40;99.90
10419;DHT22;5256;48.728;9.140;2022-08-19T11:18:28;20.50;99.90
10419;DHT22;5256;48.728;9.140;2022-08-19T11:20:54;20.60;99.90
10419;DHT22;5256;48.728;9.140;2022-08-19T11:23:19;20.70;99.90
10419;DHT22;5256;48.728;9.140;2022-08-19T11:25:45;20.90;99.90
10419;DHT22;5256;48.728;9.140;2022-08-19T11:28:12;21.00;99.90
10419;DHT22;5256;48.728;9.140;2022-08-19T11:30:38;21.10;99.90
10419;DHT22;5256;48.728;9.140;2022-08-19T11:33:04;21.20;99.90
10419;DHT22;5256;48.728;9.140;2022-08-19T11:35:30;21.40;99.90
10419;DHT22;5256;48.728;9.140;2022-08-19T11:37:55;21.70;99.90
10419;DHT22;5256;48.728;9.140;2022-08-19T11:40:23;21.80;99.90
10419;DHT22;5256;48.728;9.140;2022-08-19T11:42:48;22.00;99.90
10419;DHT22;5256;48.728;9.140;2022-08-19T11:45:21;22.10;99.90
10419;DHT22;5256;48.728;9.140;2022-08-19T11:47:47;22.30;99.90
10419;DHT22;5256;48.728;9.140;2022-08-19T11:50:13;22.50;99.90
10419;DHT22;5256;48.728;9.140;2022-08-19T11:52:39;22.60;99.90
10419;DHT22;5256;48.728;9.140;2022-08-19T11:55:05;22.40;99.90
10419;DHT22;5256;48.728;9.140;2022-08-19T11:57:31;22.30;99.90
10419;DHT22;5256;48.728;9.140;2022-08-19T11:59:56;22.30;99.90
10419;DHT22;5256;48.728;9.140;2022-08-19T12:02:22;22.30;99.90
10419;DHT22;5256;48.728;9.140;2022-08-19T12:04:49;22.30;99.90
10419;DHT22;5256;48.728;9.140;2022-08-19T12:07:14;22.50;99.90
10419;DHT22;5256;48.728;9.140;2022-08-19T12:09:40;22.80;99.90
10419;DHT22;5256;48.728;9.140;2022-08-19T12:12:06;23.10;99.90
10419;DHT22;5256;48.728;9.140;2022-08-19T12:14:32;23.20;99.90
10419;DHT22;5256;48.728;9.140;2022-08-19T12:16:57;23.10;99.90
10419;DHT22;5256;48.728;9.140;2022-08-19T12:19:23;23.10;99.90
10419;DHT22;5256;48.728;9.140;2022-08-19T12:21:50;23.10;99.90
10419;DHT22;5256;48.728;9.140;2022-08-19T12:24:17;23.00;99.90
10419;DHT22;5256;48.728;9.140;2022-08-19T12:26:48;23.00;99.90
10419;DHT22;5256;48.728;9.140;2022-08-19T12:29:14;22.80;99.90
10419;DHT22;5256;48.728;9.140;2022-08-19T12:31:40;22.70;99.90
10419;DHT22;5256;48.728;9.140;2022-08-19T12:34:06;22.60;99.90
10419;DHT22;5256;48.728;9.140;2022-08-19T12:36:31;22.60;99.90
10419;DHT22;5256;48.728;9.140;2022-08-19T12:38:58;22.60;99.90
10419;DHT22;5256;48.728;9.140;2022-08-19T12:41:24;22.70;99.90
10419;DHT22;5256;48.728;9.140;2022-08-19T12:43:50;22.70;99.90
10419;DHT22;5256;48.728;9.140;2022-08-19T12:46:17;22.60;99.90
10419;DHT22;5256;48.728;9.140;2022-08-19T12:48:43;22.50;99.90
10419;DHT22;5256;48.728;9.140;2022-08-19T12:51:18;22.40;99.90
10419;DHT22;5256;48.728;9.140;2022-08-19T12:53:45;22.30;99.90
10419;DHT22;5256;48.728;9.140;2022-08-19T12:56:12;22.10;99.90
10419;DHT22;5256;48.728;9.140;2022-08-19T12:58:40;22.10;99.90
10419;DHT22;5256;48.728;9.140;2022-08-19T13:01:14;22.00;99.90
10419;DHT22;5256;48.728;9.140;2022-08-19T13:03:40;21.90;99.90
10419;DHT22;5256;48.728;9.140;2022-08-19T13:06:06;21.80;99.90
10419;DHT22;5256;48.728;9.140;2022-08-19T13:08:32;21.80;99.90
10419;DHT22;5256;48.728;9.140;2022-08-19T13:10:57;21.60;99.90
10419;DHT22;5256;48.728;9.140;2022-08-19T13:13:31;21.50;99.90
10419;DHT22;5256;48.728;9.140;2022-08-19T13:16:00;21.40;99.90
10419;DHT22;5256;48.728;9.140;2022-08-19T13:18:27;21.40;99.90
10419;DHT22;5256;48.728;9.140;2022-08-19T13:20:52;21.30;99.90
10419;DHT22;5256;48.728;9.140;2022-08-19T13:23:18;21.20;99.90
10419;DHT22;5256;48.728;9.140;2022-08-19T13:25:44;21.30;99.90
10419;DHT22;5256;48.728;9.140;2022-08-19T13:28:09;21.30;99.90
10419;DHT22;5256;48.728;9.140;2022-08-19T13:30:35;21.30;99.90
10419;DHT22;5256;48.728;9.140;2022-08-19T13:33:19;21.30;99.90
10419;DHT22;5256;48.728;9.140;2022-08-19T13:35:48;21.30;99.90
10419;DHT22;5256;48.728;9.140;2022-08-19T13:38:17;21.10;99.90
10419;DHT22;5256;48.728;9.140;2022-08-19T13:40:43;21.00;99.90
10419;DHT22;5256;48.728;9.140;2022-08-19T13:43:09;20.90;99.90
10419;DHT22;5256;48.728;9.140;2022-08-19T13:45:35;20.80;99.90
10419;DHT22;5256;48.728;9.140;2022-08-19T13:48:03;20.70;99.90
10419;DHT22;5256;48.728;9.140;2022-08-19T13:50:32;20.70;99.90
10419;DHT22;5256;48.728;9.140;2022-08-19T13:52:58;20.70;99.90
10419;DHT22;5256;48.728;9.140;2022-08-19T13:55:25;20.70;99.90
10419;DHT22;5256;48.728;9.140;2022-08-19T13:57:56;20.60;99.90
10419;DHT22;5256;48.728;9.140;2022-08-19T14:00:28;20.50;99.90
10419;DHT22;5256;48.728;9.140;2022-08-19T14:02:56;20.40;99.90
10419;DHT22;5256;48.728;9.140;2022-08-19T14:05:23;20.40;99.90
10419;DHT22;5256;48.728;9.140;2022-08-19T14:07:49;20.30;99.90
10419;DHT22;5256;48.728;9.140;2022-08-19T14:10:16;20.30;99.90
10419;DHT22;5256;48.728;9.140;2022-08-19T14:12:41;20.20;99.90
10419;DHT22;5256;48.728;9.140;2022-08-19T14:15:08;20.20;99.90
10419;DHT22;5256;48.728;9.140;2022-08-19T14:17:37;20.30;99.90
10419;DHT22;5256;48.728;9.140;2022-08-19T14:20:04;20.40;99.90
10419;DHT22;5256;48.728;9.140;2022-08-19T14:22:34;20.40;99.90
10419;DHT22;5256;48.728;9.140;2022-08-19T14:25:00;20.50;99.90
10419;DHT22;5256;48.728;9.140;2022-08-19T14:27:25;20.70;99.90
10419;DHT22;5256;48.728;9.140;2022-08-19T14:29:52;20.80;99.90
10419;DHT22;5256;48.728;9.140;2022-08-19T14:32:18;21.00;99.90
10419;DHT22;5256;48.728;9.140;2022-08-19T14:34:44;21.10;99.90
10419;DHT22;5256;48.728;9.140;2022-08-19T14:37:12;21.60;99.90
10419;DHT22;5256;48.728;9.140;2022-08-19T14:39:40;21.90;99.90
10419;DHT22;5256;48.728;9.140;2022-08-19T14:42:07;21.80;99.90
10419;DHT22;5256;48.728;9.140;2022-08-19T14:44:34;22.00;99.90
10419;DHT22;5256;48.728;9.140;2022-08-19T14:46:59;22.10;99.90
10419;DHT22;5256;48.728;9.140;2022-08-19T14:49:25;22.20;99.90
10419;DHT22;5256;48.728;9.140;2022-08-19T14:51:50;22.40;99.90
10419;DHT22;5256;48.728;9.140;2022-08-19T14:54:16;22.70;99.90
10419;DHT22;5256;48.728;9.140;2022-08-19T14:56:42;22.80;99.90
10419;DHT22;5256;48.728;9.140;2022-08-19T14:59:07;23.00;99.90
10419;DHT22;5256;48.728;9.140;2022-08-19T15:01:33;22.80;99.90
10419;DHT22;5256;48.728;9.140;2022-08-19T15:03:58;22.50;99.90
10419;DHT22;5256;48.728;9.140;2022-08-19T15:06:25;22.20;99.90
10419;DHT22;5256;48.728;9.140;2022-08-19T15:08:52;21.90;99.90
10419;DHT22;5256;48.728;9.140;2022-08-19T15:11:20;21.80;99.90
10419;DHT22;5256;48.728;9.140;2022-08-19T15:13:47;21.80;99.90
10419;DHT22;5256;48.728;9.140;2022-08-19T15:16:13;21.70;99.90
10419;DHT22;5256;48.728;9.140;2022-08-19T15:18:42;21.70;99.90
10419;DHT22;5256;48.728;9.140;2022-08-19T15:21:11;21.70;99.90
10419;DHT22;5256;48.728;9.140;2022-08-19T15:23:38;21.80;99.90
10419;DHT22;5256;48.728;9.140;2022-08-19T15:26:04;22.00;99.90
10419;DHT22;5256;48.728;9.140;2022-08-19T15:28:32;22.10;99.90
10419;DHT22;5256;48.728;9.140;2022-08-19T15:30:58;22.20;99.90
10419;DHT22;5256;48.728;9.140;2022-08-19T15:33:24;22.20;99.90
10419;DHT22;5256;48.728;9.140;2022-08-19T15:35:51;22.10;99.90
10419;DHT22;5256;48.728;9.140;2022-08-19T15:38:17;22.10;99.90
10419;DHT22;5256;48.728;9.140;2022-08-19T15:40:47;22.10;99.90
10419;DHT22;5256;48.728;9.140;2022-08-19T15:43:14;22.40;99.90
10419;DHT22;5256;48.728;9.140;2022-08-19T15:45:41;22.60;99.90
10419;DHT22;5256;48.728;9.140;2022-08-19T15:48:07;22.40;99.90
10419;DHT22;5256;48.728;9.140;2022-08-19T15:50:32;22.40;99.90
10419;DHT22;5256;48.728;9.140;2022-08-19T15:53:01;22.40;99.90
10419;DHT22;5256;48.728;9.140;2022-08-19T15:55:30;22.50;99.90